Weather History for DeKalb, IL

Change the Weather History Date:

Wednesday, October 31, 2012

  Actual Average (KARR) Record (KARR)
Temperature  
Mean Temperature 40 °F 45 °F  
Max Temperature 49 °F 56 °F 71 °F (2000)
Min Temperature 30 °F 35 °F 24 °F (2012)
Degree Days  
Heating Degree Days 26 20  
Month to date heating degree days 455  
Since 1 July heating degree days 607  
Cooling Degree Days 0 0  
Month to date cooling degree days 8  
Year to date cooling degree days 655  
Moisture  
Dew Point 26 °F    
Average Humidity 61    
Maximum Humidity 81    
Minimum Humidity 43    
Precipitation  
Precipitation 0.00 in 0.08 in 1.04 in (2013)
Month to date precipitation 3.12  
Year to date precipitation 31.76  
Sea Level Pressure  
Sea Level Pressure 29.84 in    
Wind  
Wind Speed 13 mph (NW)    
Max Wind Speed 17 mph    
Max Gust Speed 24 mph    
Visibility 10 miles    
Events      
T = Trace of Precipitation, MM = Missing Value Source: NWS Daily Summary

Daily Weather History Graph

Daily Weather History Graph

Search for Another Location

Airport:

Trip Planner

Search our weather history database for the weather conditions in past years. The results will help you decide how hot, cold, wet, or windy it might be!

Date:

Astronomy

Oct. 31, 2012 Rise Set
Actual Time 7:26 AM CDT 5:49 PM CDT
Civil Twilight 6:57 AM CDT 6:18 PM CDT
Nautical Twilight 6:24 AM CDT 6:51 PM CDT
Astronomical Twilight 5:52 AM CDT 7:23 PM CDT
Moon 6:58 PM CDT (10/31) 9:09 AM CDT (10/31)
Length of Visible Light 11h 20m
Length of Day
10h 22m
Full, 97% of the Moon is Illuminated
Oct 31
Full
Nov 6
Last Quarter
Nov 13
New
Nov 20
First Quarter
Nov 28
Full

Hourly Weather History & Observations

Time (CDT) Temp. Windchill Dew Point Humidity Pressure Visibility Wind Dir Wind Speed Gust Speed Precip Events Conditions
12:15 AM 37.8 °F 28.6 °F 24.4 °F 59% 29.82 in 10.0 mi NNW 16.1 mph 19.6 mph N/A   Clear
12:35 AM 37.6 °F 28.1 °F 24.4 °F 59% 29.82 in 10.0 mi NNW 17.3 mph 21.9 mph N/A   Clear
12:55 AM 36.9 °F 28.2 °F 24.8 °F 62% 29.82 in 10.0 mi NNW 13.8 mph - N/A   Clear
1:15 AM 36.5 °F 27.8 °F 24.8 °F 63% 29.82 in 10.0 mi NNW 13.8 mph - N/A   Clear
1:35 AM 36.5 °F 27.4 °F 24.8 °F 63% 29.82 in 10.0 mi NNW 15.0 mph 21.9 mph N/A   Clear
1:55 AM 35.8 °F 27.8 °F 24.8 °F 64% 29.82 in 10.0 mi NW 11.5 mph 21.9 mph N/A   Clear
2:35 AM 35.1 °F 25.9 °F 25.0 °F 67% 29.83 in 10.0 mi NNW 13.8 mph 20.7 mph N/A   Clear
2:55 AM 34.9 °F 25.3 °F 25.2 °F 68% 29.83 in 10.0 mi NNW 15.0 mph 23.0 mph N/A   Clear
3:15 AM 34.3 °F 25.5 °F 24.8 °F 68% 29.83 in 10.0 mi NNW 12.7 mph 19.6 mph N/A   Clear
3:35 AM 34.2 °F 25.2 °F 25.2 °F 70% 29.83 in 10.0 mi NW 12.7 mph 18.4 mph N/A   Clear
3:55 AM 33.8 °F 25.3 °F 25.3 °F 71% 29.83 in 10.0 mi NW 11.5 mph 18.4 mph N/A   Clear
4:15 AM 33.4 °F 23.5 °F 25.3 °F 72% 29.83 in 10.0 mi NNW 15.0 mph 19.6 mph N/A   Clear
4:35 AM 33.1 °F 23.9 °F 25.3 °F 73% 29.83 in 10.0 mi NNW 12.7 mph - N/A   Clear
4:55 AM 32.9 °F 23.7 °F 25.5 °F 74% 29.83 in 10.0 mi NW 12.7 mph 16.1 mph N/A   Clear
5:15 AM 32.5 °F 23.7 °F 25.7 °F 76% 29.83 in 10.0 mi NW 11.5 mph 16.1 mph N/A   Clear
5:35 AM 32.5 °F 24.2 °F 25.7 °F 76% 29.83 in 10.0 mi NW 10.4 mph - N/A   Clear
5:55 AM 32.5 °F 23.7 °F 25.5 °F 75% 29.83 in 10.0 mi NW 11.5 mph - N/A   Clear
6:15 AM 31.5 °F 22.3 °F 25.3 °F 78% 29.83 in 10.0 mi NW 11.5 mph - N/A   Clear
6:55 AM 31.5 °F 22.9 °F 25.7 °F 79% 29.84 in 10.0 mi NW 10.4 mph 16.1 mph N/A   Clear
7:15 AM 31.1 °F 22.4 °F 25.5 °F 80% 29.84 in 10.0 mi NW 10.4 mph - N/A   Clear
7:35 AM 30.9 °F 22.2 °F 25.5 °F 80% 29.84 in 10.0 mi NW 10.4 mph 17.3 mph N/A   Clear
7:55 AM 30.7 °F 21.4 °F 25.5 °F 81% 29.84 in 10.0 mi NW 11.5 mph - N/A   Clear
8:15 AM 31.3 °F 22.1 °F 25.9 °F 80% 29.85 in 10.0 mi NW 11.5 mph - N/A   Clear
8:35 AM 32.0 °F 22.5 °F 26.1 °F 79% 29.85 in 10.0 mi NW 12.7 mph - N/A   Clear
8:55 AM 32.5 °F 23.7 °F 27.0 °F 80% 29.85 in 10.0 mi NW 11.5 mph - N/A   Clear
9:35 AM 35.1 °F 25.5 °F 27.5 °F 74% 29.84 in 10.0 mi NNW 15.0 mph 19.6 mph N/A   Clear
9:55 AM 35.8 °F 26.5 °F 27.9 °F 73% 29.84 in 10.0 mi NNW 15.0 mph 21.9 mph N/A   Clear
10:15 AM 36.5 °F 28.2 °F 27.5 °F 70% 29.85 in 10.0 mi NW 12.7 mph 24.2 mph N/A   Clear
10:35 AM 37.6 °F 30.5 °F 28.8 °F 70% 29.85 in 10.0 mi NW 10.4 mph 20.7 mph N/A   Clear
10:55 AM 38.8 °F 31.2 °F 28.8 °F 67% 29.85 in 10.0 mi NW 12.7 mph 20.7 mph N/A   Clear
11:15 AM 40.1 °F 31.6 °F 29.3 °F 65% 29.85 in 10.0 mi NW 16.1 mph 21.9 mph N/A   Clear
11:35 AM 41.9 °F 34.3 °F 29.7 °F 62% 29.85 in 10.0 mi NNW 15.0 mph 21.9 mph N/A   Clear
11:55 AM 42.4 °F 35.7 °F 29.7 °F 61% 29.85 in 10.0 mi NW 12.7 mph 20.7 mph N/A   Clear
12:15 PM 43.5 °F 36.4 °F 30.0 °F 59% 29.84 in 10.0 mi NNW 15.0 mph 19.6 mph N/A   Clear
12:35 PM 44.6 °F 38.1 °F 30.2 °F 57% 29.84 in 10.0 mi NNW 13.8 mph 23.0 mph N/A   Clear
12:55 PM 45.5 °F 39.9 °F 30.6 °F 56% 29.83 in 10.0 mi NW 11.5 mph 19.6 mph N/A   Clear
1:15 PM 45.5 °F 38.6 °F 30.0 °F 55% 29.83 in 10.0 mi NW 16.1 mph 19.6 mph N/A   Clear
1:35 PM 46.6 °F - 30.6 °F 54% 29.83 in 10.0 mi WNW 16.1 mph 21.9 mph N/A   Clear
1:55 PM 47.3 °F - 30.7 °F 53% 29.82 in 10.0 mi WNW 16.1 mph 20.7 mph N/A   Clear
2:15 PM 48.2 °F - 31.3 °F 52% 29.82 in 10.0 mi NW 13.8 mph 21.9 mph N/A   Clear
2:35 PM 48.9 °F - 31.1 °F 50% 29.82 in 10.0 mi WNW 15.0 mph 21.9 mph N/A   Clear
2:55 PM 49.1 °F - 30.9 °F 50% 29.82 in 10.0 mi NW 12.7 mph 19.6 mph N/A   Clear
3:15 PM 49.5 °F - 30.7 °F 49% 29.82 in 10.0 mi NW 15.0 mph 20.7 mph N/A   Clear
3:35 PM 49.5 °F - 30.4 °F 48% 29.82 in 10.0 mi NW 13.8 mph 24.2 mph N/A   Clear
3:55 PM 49.6 °F - 30.6 °F 48% 29.82 in 10.0 mi NW 13.8 mph 19.6 mph N/A   Clear
4:15 PM 49.6 °F - 30.0 °F 47% 29.82 in 10.0 mi NW 15.0 mph 21.9 mph N/A   Clear
4:35 PM 49.1 °F - 29.8 °F 47% 29.82 in 10.0 mi NW 13.8 mph 18.4 mph N/A   Clear
4:55 PM 48.4 °F - 29.1 °F 47% 29.82 in 10.0 mi NW 13.8 mph 20.7 mph N/A   Clear
5:35 PM 46.4 °F 41.5 °F 25.2 °F 43% 29.84 in 10.0 mi WNW 10.4 mph - N/A   Clear
5:55 PM 44.6 °F 39.7 °F 24.8 °F 46% 29.84 in 10.0 mi WNW 9.2 mph - N/A   Clear
6:15 PM 42.8 °F 37.0 °F 24.1 °F 48% 29.85 in 10.0 mi WNW 10.4 mph - N/A   Clear
6:35 PM 42.1 °F 36.6 °F 22.8 °F 46% 29.85 in 10.0 mi WNW 9.2 mph - N/A   Clear
7:15 PM 40.1 °F 34.1 °F 20.1 °F 45% 29.86 in 10.0 mi WNW 9.2 mph - N/A   Clear
7:35 PM 38.8 °F 32.6 °F 19.2 °F 45% 29.87 in 10.0 mi WNW 9.2 mph - N/A   Clear
7:55 PM 37.6 °F 31.6 °F 19.2 °F 48% 29.87 in 10.0 mi WNW 8.1 mph - N/A   Clear
8:15 PM 37.2 °F 31.2 °F 19.2 °F 48% 29.87 in 10.0 mi WNW 8.1 mph - N/A   Clear
8:35 PM 36.5 °F 30.3 °F 18.7 °F 49% 29.87 in 10.0 mi WNW 8.1 mph - N/A   Clear
8:55 PM 36.9 °F 30.7 °F 17.8 °F 46% 29.87 in 10.0 mi WNW 8.1 mph - N/A   Clear
9:15 PM 36.5 °F 29.7 °F 18.0 °F 47% 29.87 in 10.0 mi WNW 9.2 mph - N/A   Clear
9:35 PM 35.6 °F 29.2 °F 18.1 °F 49% 29.87 in 10.0 mi WNW 8.1 mph - N/A   Clear
9:55 PM 35.6 °F 29.2 °F 18.5 °F 50% 29.87 in 10.0 mi NW 8.1 mph - N/A   Clear
10:15 PM 34.3 °F 27.7 °F 19.0 °F 54% 29.87 in 10.0 mi WNW 8.1 mph - N/A   Clear
10:55 PM 33.3 °F 27.1 °F 19.4 °F 57% 29.87 in 10.0 mi NW 6.9 mph - N/A   Clear
11:15 PM 32.9 °F 25.9 °F 19.9 °F 59% 29.87 in 10.0 mi WNW 8.1 mph - N/A   Clear
11:55 PM 34.0 °F 27.2 °F 20.3 °F 57% 29.87 in 10.0 mi NW 8.1 mph - N/A   Clear